Time;durP1;ratioP1;P1;durP2;ratioP2;P2;SDS_P1;SDS_P2;PMS_P1;PMS_P2;Temp;Humidity;BMP_temperature;BMP_pressure;BME280_temperature;BME280_humidity;BME280_pressure;Samples;Min_cycle;Max_cycle;Signal;HPM_P1;HPM_P2
2021/03/03 00:01:34;;;;;;;46.85;26.77;;;;;;;0.38;100.00;102336.28;4949962;28;20051;-48
2021/03/03 00:04:01;;;;;;;48.38;27.50;;;;;;;0.29;100.00;102340.44;4951433;28;20471;-49
2021/03/03 00:06:27;;;;;;;52.72;27.60;;;;;;;0.31;100.00;102333.03;4949808;28;20051;-45
2021/03/03 00:08:54;;;;;;;50.05;25.35;;;;;;;0.29;100.00;102334.53;4951360;28;20051;-44
2021/03/03 00:11:20;;;;;;;49.55;25.60;;;;;;;0.34;100.00;102335.84;4950121;28;20562;-42
2021/03/03 00:13:47;;;;;;;53.58;24.63;;;;;;;0.50;100.00;102323.91;4951176;28;20449;-49
2021/03/03 00:16:13;;;;;;;53.35;25.58;;;;;;;0.41;100.00;102331.50;4951307;28;20055;-50
2021/03/03 00:18:40;;;;;;;47.28;25.38;;;;;;;0.45;100.00;102322.59;4957271;28;20054;-50
2021/03/03 00:21:07;;;;;;;56.95;27.75;;;;;;;0.44;100.00;102324.22;4950669;28;20424;-51
2021/03/03 00:23:33;;;;;;;56.53;29.20;;;;;;;0.43;100.00;102324.09;4949721;28;20782;-54
2021/03/03 00:26:00;;;;;;;77.07;36.63;;;;;;;0.54;100.00;102323.44;4951962;28;20122;-48
2021/03/03 00:28:27;;;;;;;70.25;35.45;;;;;;;0.69;100.00;102324.88;4949351;28;20378;-51
2021/03/03 00:30:53;;;;;;;72.72;36.92;;;;;;;0.66;100.00;102318.66;4950788;28;20047;-51
2021/03/03 00:33:20;;;;;;;74.07;34.33;;;;;;;0.81;100.00;102322.56;4949828;28;20092;-50
2021/03/03 00:35:47;;;;;;;64.18;32.80;;;;;;;0.80;100.00;102320.78;4949357;28;20062;-56
2021/03/03 00:38:14;;;;;;;63.03;30.60;;;;;;;0.73;100.00;102319.31;4949049;28;20515;-53
2021/03/03 00:40:40;;;;;;;59.83;29.90;;;;;;;0.75;100.00;102315.31;4949787;28;20341;-53
2021/03/03 00:43:07;;;;;;;62.28;31.85;;;;;;;0.87;100.00;102309.59;4950333;28;20412;-52
2021/03/03 00:45:34;;;;;;;60.08;30.77;;;;;;;0.83;100.00;102312.59;4950337;28;20366;-53
2021/03/03 00:48:00;;;;;;;66.97;34.72;;;;;;;0.71;100.00;102318.31;4951422;28;20520;-51
2021/03/03 00:50:27;;;;;;;76.47;35.78;;;;;;;0.83;100.00;102310.97;4949086;28;20073;-47
2021/03/03 00:52:54;;;;;;;73.82;35.13;;;;;;;0.86;100.00;102306.19;4953768;28;20057;-54
2021/03/03 00:55:20;;;;;;;61.70;31.35;;;;;;;1.03;100.00;102305.22;4949621;28;20055;-51
2021/03/03 00:57:47;;;;;;;66.40;31.50;;;;;;;1.06;100.00;102307.09;4950831;28;20393;-57
2021/03/03 01:00:32;;;;;;;56.80;30.60;;;;;;;0.90;100.00;102304.84;4948768;28;20046;-55
2021/03/03 01:02:58;;;;;;;60.90;31.30;;;;;;;0.87;100.00;102307.97;4956325;28;20376;-52
2021/03/03 01:05:25;;;;;;;55.08;29.67;;;;;;;0.69;100.00;102304.69;4948743;28;20043;-54
2021/03/03 01:07:52;;;;;;;57.25;29.05;;;;;;;0.93;100.00;102310.19;4950321;28;20066;-56
2021/03/03 01:10:19;;;;;;;50.45;27.20;;;;;;;1.38;100.00;102302.41;4948940;28;20043;-55
2021/03/03 01:12:45;;;;;;;43.47;23.40;;;;;;;1.13;100.00;102296.81;4950338;28;20050;-50
2021/03/03 01:15:12;;;;;;;42.35;22.23;;;;;;;1.12;100.00;102298.47;4948985;28;20043;-52
2021/03/03 01:17:38;;;;;;;40.60;23.33;;;;;;;0.98;100.00;102292.19;4949219;28;20090;-46
2021/03/03 01:20:06;;;;;;;39.65;21.98;;;;;;;0.86;99.66;102290.19;4949572;28;20050;-48
2021/03/03 01:22:33;;;;;;;42.40;22.83;;;;;;;0.58;100.00;102296.88;4948588;28;20059;-52
2021/03/03 01:24:59;;;;;;;52.60;27.75;;;;;;;0.29;100.00;102291.69;4951602;28;20058;-53
2021/03/03 01:27:26;;;;;;;56.70;28.40;;;;;;;0.23;100.00;102280.31;4948142;28;20051;-57
2021/03/03 01:29:52;;;;;;;51.28;27.45;;;;;;;0.10;100.00;102281.56;4950800;28;20050;-56
2021/03/03 01:32:19;;;;;;;53.25;27.08;;;;;;;0.01;100.00;102278.19;4948959;28;20043;-51
2021/03/03 01:34:45;;;;;;;62.35;28.67;;;;;;;0.06;100.00;102274.44;4949464;28;20051;-48
2021/03/03 01:37:12;;;;;;;57.13;29.50;;;;;;;0.08;100.00;102280.50;4951756;28;20047;-55
2021/03/03 01:39:38;;;;;;;64.07;31.67;;;;;;;0.02;100.00;102269.88;4949414;28;20050;-55
2021/03/03 01:42:05;;;;;;;63.08;29.92;;;;;;;0.12;100.00;102260.78;4949674;28;20050;-51
2021/03/03 01:44:32;;;;;;;56.80;29.05;;;;;;;0.09;100.00;102263.00;4948536;28;20058;-48
2021/03/03 01:46:58;;;;;;;58.50;29.60;;;;;;;0.03;100.00;102264.97;4949952;28;20050;-52
2021/03/03 01:49:25;;;;;;;56.90;30.35;;;;;;;-0.10;100.00;102262.94;4951136;28;20055;-51
2021/03/03 01:51:53;;;;;;;58.63;27.40;;;;;;;0.02;100.00;102253.13;4950692;28;20086;-52
2021/03/03 01:54:19;;;;;;;64.43;28.27;;;;;;;-0.19;100.00;102251.09;4951935;28;20054;-50
2021/03/03 01:56:46;;;;;;;59.33;29.45;;;;;;;-0.34;100.00;102237.97;4951415;28;20043;-56
2021/03/03 01:59:12;;;;;;;63.08;29.15;;;;;;;-0.41;100.00;102244.06;4951644;28;20051;-52
2021/03/03 02:01:39;;;;;;;60.63;29.05;;;;;;;-0.39;100.00;102241.69;4949331;28;20043;-59
2021/03/03 02:04:06;;;;;;;55.22;26.70;;;;;;;-0.46;100.00;102237.72;4948973;28;20054;-49
2021/03/03 02:06:40;;;;;;;57.67;27.63;;;;;;;-0.59;100.00;102228.13;4948370;28;20061;-56
2021/03/03 02:09:17;;;;;;;55.75;25.77;;;;;;;-0.69;100.00;102225.47;4951089;28;20066;-48
2021/03/03 02:11:56;;;;;;;55.53;26.27;;;;;;;-0.75;100.00;102224.88;4949557;28;20059;-52
2021/03/03 02:14:25;;;;;;;56.08;27.75;;;;;;;-0.78;100.00;102220.47;4951850;28;20061;-52
2021/03/03 02:16:54;;;;;;;62.15;26.55;;;;;;;-0.82;100.00;102222.53;4949905;28;20085;-53
2021/03/03 02:19:29;;;;;;;55.13;25.63;;;;;;;-0.85;100.00;102217.19;4948124;28;20138;-52
2021/03/03 02:22:05;;;;;;;50.22;22.83;;;;;;;-0.84;100.00;102221.47;4949579;28;20133;-53
2021/03/03 02:24:39;;;;;;;51.95;23.48;;;;;;;-0.74;100.00;102218.22;4948238;28;20453;-55
2021/03/03 02:27:06;;;;;;;32.40;17.95;;;;;;;-0.82;100.00;102212.47;4950420;28;20366;-51
2021/03/03 02:29:33;;;;;;;47.45;22.13;;;;;;;-0.80;100.00;102211.84;4948401;28;20054;-52
2021/03/03 02:31:59;;;;;;;46.58;21.00;;;;;;;-0.82;100.00;102207.44;4948224;28;20062;-54
2021/03/03 02:34:29;;;;;;;48.75;23.05;;;;;;;-0.86;100.00;102205.38;4948092;28;20516;-54
2021/03/03 02:36:57;;;;;;;53.05;24.45;;;;;;;-0.88;100.00;102204.31;4949166;28;20497;-48
2021/03/03 02:39:26;;;;;;;53.97;23.83;;;;;;;-0.89;100.00;102198.41;4948030;28;20412;-49
2021/03/03 02:41:54;;;;;;;60.55;24.58;;;;;;;-0.91;100.00;102197.38;4950166;28;20050;-56
2021/03/03 02:44:21;;;;;;;54.28;22.88;;;;;;;-0.82;100.00;102197.38;4948112;28;20362;-51
2021/03/03 02:46:48;;;;;;;54.90;23.30;;;;;;;-0.78;100.00;102192.78;4953115;28;20062;-52
2021/03/03 02:49:18;;;;;;;53.53;24.45;;;;;;;-0.77;100.00;102186.13;4951320;28;20171;-51
2021/03/03 02:51:44;;;;;;;51.80;23.77;;;;;;;-0.73;100.00;102193.22;4952943;28;20059;-53
2021/03/03 02:54:12;;;;;;;62.83;27.23;;;;;;;-0.69;100.00;102195.31;4951130;28;20043;-47
2021/03/03 02:56:39;;;;;;;65.95;26.50;;;;;;;-0.67;100.00;102177.81;4952194;28;20062;-51
2021/03/03 02:59:19;;;;;;;54.63;25.00;;;;;;;-0.62;100.00;102181.66;4951476;28;20070;-46
2021/03/03 03:01:59;;;;;;;55.40;23.08;;;;;;;-0.69;100.00;102180.22;4952827;28;20129;-52
2021/03/03 03:04:29;;;;;;;60.10;25.08;;;;;;;-0.64;100.00;102175.59;4950980;28;20051;-54
2021/03/03 03:06:57;;;;;;;63.45;26.88;;;;;;;-0.60;100.00;102182.66;4952898;28;20061;-52
2021/03/03 03:09:25;;;;;;;64.70;26.60;;;;;;;-0.57;100.00;102172.91;4954618;28;20055;-58
2021/03/03 03:11:53;;;;;;;65.15;27.15;;;;;;;-0.64;100.00;102168.06;4952930;28;20062;-52
2021/03/03 03:14:27;;;;;;;75.43;27.60;;;;;;;-0.70;100.00;102160.78;4950841;28;20090;-47
2021/03/03 03:16:56;;;;;;;66.30;27.50;;;;;;;-0.76;100.00;102165.25;4952822;28;20704;-53
2021/03/03 03:19:28;;;;;;;59.42;25.45;;;;;;;-0.85;100.00;102165.28;4950772;28;20043;-49
2021/03/03 03:21:57;;;;;;;59.78;25.02;;;;;;;-0.87;100.00;102165.88;4952699;28;20054;-53
2021/03/03 03:24:24;;;;;;;62.92;24.65;;;;;;;-1.00;100.00;102160.44;4951240;28;20207;-51
2021/03/03 03:26:53;;;;;;;57.72;25.40;;;;;;;-1.06;100.00;102165.75;4952597;28;20039;-52
2021/03/03 03:29:20;;;;;;;56.47;24.23;;;;;;;-1.14;100.00;102156.59;4950789;28;20049;-45
2021/03/03 03:31:47;;;;;;;61.28;25.13;;;;;;;-1.15;100.00;102155.72;4952527;28;20592;-51
2021/03/03 03:34:16;;;;;;;56.15;22.75;;;;;;;-1.00;100.00;102151.25;4950890;28;20050;-50
2021/03/03 03:36:43;;;;;;;63.75;24.83;;;;;;;-1.15;100.00;102148.16;4951790;28;20055;-50
2021/03/03 03:39:12;;;;;;;69.65;25.90;;;;;;;-1.10;100.00;102151.13;4955803;28;20496;-49
2021/03/03 03:41:40;;;;;;;60.92;26.85;;;;;;;-1.11;100.00;102141.78;4951457;28;20058;-55
2021/03/03 03:44:09;;;;;;;57.88;23.55;;;;;;;-1.08;100.00;102150.50;4951138;28;20055;-56
2021/03/03 03:46:39;;;;;;;56.33;23.60;;;;;;;-0.93;100.00;102151.06;4951180;28;20180;-51
2021/03/03 03:49:06;;;;;;;44.88;21.48;;;;;;;-0.69;100.00;102159.16;4951152;28;20054;-52
2021/03/03 03:51:33;;;;;;;48.88;22.02;;;;;;;-0.91;100.00;102157.16;4949860;28;20055;-54
2021/03/03 03:54:00;;;;;;;47.60;21.77;;;;;;;-1.14;100.00;102154.97;4949880;28;20047;-54
2021/03/03 03:56:27;;;;;;;48.75;23.05;;;;;;;-1.11;100.00;102147.72;4949407;28;20047;-51
2021/03/03 03:58:53;;;;;;;47.35;20.15;;;;;;;-0.47;100.00;102154.53;4952654;28;20054;-52
2021/03/03 04:01:20;;;;;;;38.55;19.85;;;;;;;-0.56;100.00;102150.41;4950398;28;20051;-49
2021/03/03 04:03:46;;;;;;;47.30;22.10;;;;;;;-0.75;100.00;102154.44;4955060;28;20051;-53
2021/03/03 04:06:13;;;;;;;50.00;22.27;;;;;;;-1.06;100.00;102146.53;4950268;28;20055;-48
2021/03/03 04:08:40;;;;;;;50.25;24.02;;;;;;;-1.20;100.00;102148.44;4955663;28;20051;-54
2021/03/03 04:11:06;;;;;;;59.35;25.17;;;;;;;-1.15;100.00;102148.16;4954782;28;20051;-52
2021/03/03 04:13:33;;;;;;;59.33;25.33;;;;;;;-0.90;100.00;102143.84;4950105;28;20054;-56
2021/03/03 04:16:00;;;;;;;61.25;25.80;;;;;;;-0.82;100.00;102147.97;4952594;28;20126;-54
2021/03/03 04:18:26;;;;;;;57.38;25.58;;;;;;;-0.93;100.00;102146.06;4949582;28;20122;-54
2021/03/03 04:20:53;;;;;;;55.33;25.25;;;;;;;-0.52;100.00;102154.97;4951934;28;20052;-51
2021/03/03 04:23:19;;;;;;;61.47;27.08;;;;;;;-1.11;100.00;102144.31;4949481;28;20055;-57
2021/03/03 04:25:46;;;;;;;62.25;26.25;;;;;;;-1.21;100.00;102146.69;4951537;28;20050;-52
2021/03/03 04:28:13;;;;;;;56.50;25.98;;;;;;;-0.93;100.00;102153.59;4952292;28;20055;-52
2021/03/03 04:30:39;;;;;;;52.17;24.92;;;;;;;-0.96;100.00;102142.38;4951055;28;20059;-54
2021/03/03 04:33:08;;;;;;;61.05;26.55;;;;;;;-1.13;100.00;102143.28;4951008;28;20047;-50
2021/03/03 04:35:36;;;;;;;58.05;26.45;;;;;;;-0.99;100.00;102140.44;4949655;28;20050;-52
2021/03/03 04:38:03;;;;;;;63.42;26.25;;;;;;;-1.08;100.00;102135.44;4949462;28;20046;-51
2021/03/03 04:40:30;;;;;;;61.50;28.60;;;;;;;-1.22;100.00;102133.22;4954751;28;20051;-53
2021/03/03 04:42:56;;;;;;;73.38;31.60;;;;;;;-1.26;100.00;102127.75;4950849;28;20057;-54
2021/03/03 04:45:23;;;;;;;61.50;25.77;;;;;;;-0.50;100.00;102135.03;4949082;28;20138;-46
2021/03/03 04:47:53;;;;;;;57.42;25.42;;;;;;;-0.64;100.00;102131.22;4950798;28;20042;-55
2021/03/03 04:50:20;;;;;;;55.33;25.13;;;;;;;-0.67;100.00;102127.53;4949780;28;20451;-51
2021/03/03 04:52:47;;;;;;;53.63;24.23;;;;;;;-0.76;100.00;102120.00;4952471;28;20118;-55
2021/03/03 04:55:13;;;;;;;60.58;25.27;;;;;;;-0.35;100.00;102112.91;4950652;28;20094;-53
2021/03/03 04:57:40;;;;;;;57.08;24.33;;;;;;;-0.73;100.00;102115.25;4950820;28;20500;-51
2021/03/03 05:00:07;;;;;;;52.63;22.98;;;;;;;-0.60;100.00;102108.13;4951919;28;20051;-51
2021/03/03 05:02:33;;;;;;;50.05;23.60;;;;;;;-0.21;100.00;102111.66;4963559;28;20050;-52
2021/03/03 05:05:00;;;;;;;48.03;23.65;;;;;;;-0.41;100.00;102102.28;4964666;28;20396;-50
2021/03/03 05:07:27;;;;;;;55.78;24.80;;;;;;;-0.88;100.00;102099.63;4953424;28;20054;-49
2021/03/03 05:09:53;;;;;;;51.10;24.52;;;;;;;-0.94;100.00;102094.00;4951692;28;20526;-50
2021/03/03 05:12:19;;;;;;;51.60;24.35;;;;;;;-0.99;100.00;102091.81;4950294;28;20051;-52
2021/03/03 05:14:46;;;;;;;51.10;24.67;;;;;;;-1.00;100.00;102092.56;4952720;28;20054;-56
2021/03/03 05:17:14;;;;;;;57.90;24.80;;;;;;;-0.93;100.00;102087.34;4950239;28;20082;-54
2021/03/03 05:19:45;;;;;;;52.35;23.40;;;;;;;-1.07;100.00;102086.91;4951705;28;20055;-50
2021/03/03 05:22:11;;;;;;;53.72;23.48;;;;;;;-0.74;100.00;102089.94;4952946;28;20071;-54
2021/03/03 05:24:38;;;;;;;51.80;24.27;;;;;;;-0.97;100.00;102086.19;4950629;28;20047;-50
2021/03/03 05:27:04;;;;;;;55.08;23.77;;;;;;;-1.21;100.00;102083.84;4963704;28;20483;-52
2021/03/03 05:29:31;;;;;;;58.40;24.98;;;;;;;-1.13;100.00;102086.34;4969522;28;20070;-51
2021/03/03 05:31:59;;;;;;;54.97;25.25;;;;;;;-0.90;100.00;102088.53;4953022;28;20047;-51
2021/03/03 05:34:26;;;;;;;54.10;24.17;;;;;;;-0.58;100.00;102090.63;4950018;28;20053;-51
2021/03/03 05:36:58;;;;;;;48.20;22.77;;;;;;;-0.60;100.00;102097.16;4951371;28;20421;-48
2021/03/03 05:39:25;;;;;;;47.90;23.63;;;;;;;-0.50;100.00;102101.44;4950096;28;20065;-51
2021/03/03 05:41:51;;;;;;;50.55;24.77;;;;;;;-0.56;100.00;102102.59;4951905;28;20444;-52
2021/03/03 05:44:18;;;;;;;50.13;22.83;;;;;;;-0.87;100.00;102103.91;4948001;28;20447;-55
2021/03/03 05:46:46;;;;;;;56.83;24.13;;;;;;;-1.26;100.00;102093.47;4949653;28;20049;-56
2021/03/03 05:49:19;;;;;;;50.58;23.63;;;;;;;-1.33;100.00;102096.16;4951502;28;20129;-56
2021/03/03 05:51:46;;;;;;;52.42;24.33;;;;;;;-1.41;100.00;102099.56;4950743;28;20066;-52
2021/03/03 05:54:13;;;;;;;60.53;25.55;;;;;;;-1.29;100.00;102094.06;4952342;28;20153;-55
2021/03/03 05:56:41;;;;;;;48.88;23.90;;;;;;;-0.91;100.00;102096.81;4950196;28;20048;-56
2021/03/03 05:59:11;;;;;;;53.72;23.85;;;;;;;-0.97;100.00;102098.75;4950034;28;20051;-51
2021/03/03 06:01:39;;;;;;;49.78;23.98;;;;;;;-0.61;100.00;102106.31;4949958;28;20050;-55
2021/03/03 06:04:19;;;;;;;48.15;22.23;;;;;;;-0.20;100.00;102105.84;4952651;28;20114;-48
2021/03/03 06:06:46;;;;;;;50.75;23.45;;;;;;;-0.46;100.00;102106.88;4950786;28;20361;-46
2021/03/03 06:09:13;;;;;;;52.70;23.33;;;;;;;-0.77;100.00;102106.53;4952531;28;20058;-51
2021/03/03 06:11:39;;;;;;;47.92;22.90;;;;;;;-0.69;100.00;102101.31;4949812;28;20532;-47
2021/03/03 06:14:06;;;;;;;45.95;22.55;;;;;;;-0.78;100.00;102102.25;4957620;28;20046;-45
2021/03/03 06:16:33;;;;;;;49.13;23.88;;;;;;;-0.70;100.00;102102.94;4949852;28;20813;-48
2021/03/03 06:18:59;;;;;;;42.55;22.17;;;;;;;-0.22;100.00;102099.81;4952291;28;20070;-45
2021/03/03 06:21:28;;;;;;;48.97;22.00;;;;;;;-0.43;100.00;102102.09;4952563;28;20062;-49
2021/03/03 06:24:02;;;;;;;43.78;22.17;;;;;;;-0.84;100.00;102099.16;4955328;28;20054;-50
2021/03/03 06:26:29;;;;;;;47.33;22.50;;;;;;;-0.92;100.00;102089.13;4952679;28;20046;-48
2021/03/03 06:28:56;;;;;;;48.33;22.45;;;;;;;-1.05;100.00;102092.13;4955300;28;20047;-46
2021/03/03 06:31:27;;;;;;;46.65;23.52;;;;;;;-1.09;100.00;102085.03;4952930;28;20340;-47
2021/03/03 06:34:10;;;;;;;51.17;23.95;;;;;;;-1.14;100.00;102086.22;4955132;28;20054;-50
2021/03/03 06:36:38;;;;;;;58.05;25.92;;;;;;;-1.12;100.00;102084.72;4953099;28;20047;-47
2021/03/03 06:39:16;;;;;;;54.88;26.60;;;;;;;-1.14;100.00;102084.59;4953270;28;20058;-52
2021/03/03 06:41:42;;;;;;;53.78;26.63;;;;;;;-1.11;100.00;102081.47;4953558;28;20067;-51
2021/03/03 06:44:09;;;;;;;58.97;27.38;;;;;;;-1.12;100.00;102080.56;4951818;28;20508;-45
2021/03/03 06:46:36;;;;;;;58.88;27.20;;;;;;;-1.06;100.00;102081.19;4953035;28;20050;-49
2021/03/03 06:49:02;;;;;;;58.70;27.52;;;;;;;-1.01;100.00;102076.59;4953184;28;20055;-51
2021/03/03 06:51:36;;;;;;;53.97;27.38;;;;;;;-1.02;100.00;102074.78;4952430;28;20043;-49
2021/03/03 06:54:16;;;;;;;60.65;26.88;;;;;;;-0.98;100.00;102074.34;4958418;28;20050;-45
2021/03/03 06:56:44;;;;;;;56.70;26.63;;;;;;;-0.95;100.00;102078.78;4956329;28;20058;-49
2021/03/03 06:59:17;;;;;;;55.03;26.45;;;;;;;-0.92;100.00;102077.44;4952101;28;20058;-50
2021/03/03 07:01:47;;;;;;;57.75;26.63;;;;;;;-0.88;100.00;102071.97;4953627;28;20063;-46
2021/03/03 07:04:19;;;;;;;59.15;27.00;;;;;;;-0.79;100.00;102070.31;4954940;28;20047;-46
2021/03/03 07:06:46;;;;;;;57.55;27.65;;;;;;;-0.71;100.00;102060.06;4953530;28;20047;-49
2021/03/03 07:09:13;;;;;;;60.42;26.13;;;;;;;-0.52;100.00;102064.41;4955032;28;20051;-46
2021/03/03 07:11:43;;;;;;;50.15;23.98;;;;;;;-0.36;100.00;102061.69;4953252;28;20527;-43
2021/03/03 07:14:22;;;;;;;49.60;23.73;;;;;;;-0.27;100.00;102069.19;4952151;28;20058;-43
2021/03/03 07:17:17;;;;;;;50.90;23.85;;;;;;;0.17;100.00;102075.69;4953413;28;20047;-47
2021/03/03 07:19:59;;;;;;;45.95;23.05;;;;;;;0.08;100.00;102072.34;4953411;28;20082;-45
2021/03/03 07:22:29;;;;;;;46.75;22.35;;;;;;;-0.16;100.00;102063.47;4955162;28;20043;-45
2021/03/03 07:25:03;;;;;;;41.88;22.38;;;;;;;0.14;100.00;102072.00;4954005;28;20145;-46
2021/03/03 07:27:31;;;;;;;41.70;21.42;;;;;;;0.91;100.00;102062.88;4951182;28;20058;-43
2021/03/03 07:30:01;;;;;;;44.13;22.13;;;;;;;0.47;100.00;102064.06;4953122;28;20054;-48
2021/03/03 07:32:27;;;;;;;47.80;23.58;;;;;;;0.09;100.00;102051.44;4950622;28;20064;-47
2021/03/03 07:34:56;;;;;;;46.90;22.75;;;;;;;0.16;100.00;102047.88;4953688;28;20135;-49
2021/03/03 07:37:25;;;;;;;50.38;25.38;;;;;;;0.24;100.00;102037.72;4951182;28;20046;-44
2021/03/03 07:40:01;;;;;;;48.03;25.10;;;;;;;0.60;100.00;102051.78;4953458;28;20054;-45
2021/03/03 07:42:30;;;;;;;41.38;24.08;;;;;;;0.94;100.00;102059.75;4951893;28;20058;-47
2021/03/03 07:44:59;;;;;;;44.03;23.00;;;;;;;0.84;100.00;102055.56;4953759;28;20047;-49
2021/03/03 07:47:33;;;;;;;50.75;22.85;;;;;;;1.58;100.00;102052.59;4951194;28;20404;-50
2021/03/03 07:50:08;;;;;;;46.20;22.60;;;;;;;1.64;100.00;102055.63;4953951;28;20039;-48
2021/03/03 07:52:39;;;;;;;41.10;20.92;;;;;;;2.36;95.57;102069.13;4951844;28;20051;-50
2021/03/03 07:55:06;;;;;;;41.22;22.88;;;;;;;2.20;95.60;102064.44;4952162;28;20058;-47
2021/03/03 07:57:35;;;;;;;38.60;22.83;;;;;;;1.63;98.60;102056.38;4951165;28;20047;-49
2021/03/03 08:00:06;;;;;;;42.08;22.83;;;;;;;2.52;96.25;102059.47;4953821;28;20046;-45
2021/03/03 08:02:47;;;;;;;42.03;22.95;;;;;;;2.44;95.79;102052.03;4951126;28;20081;-48
2021/03/03 08:05:38;;;;;;;41.47;23.05;;;;;;;3.02;94.52;102060.03;4954053;28;20054;-46
2021/03/03 08:08:13;;;;;;;45.42;24.55;;;;;;;3.54;90.73;102056.44;4959189;28;20058;-48
2021/03/03 08:10:43;;;;;;;41.15;22.83;;;;;;;3.54;91.01;102050.50;4957266;28;20058;-46
2021/03/03 08:13:14;;;;;;;42.78;22.33;;;;;;;3.23;93.20;102043.09;4954627;28;20150;-44
2021/03/03 08:15:56;;;;;;;39.97;21.48;;;;;;;4.59;90.09;102035.47;4951912;28;20189;-47
2021/03/03 08:18:50;;;;;;;42.70;23.50;;;;;;;5.96;81.76;102047.38;4953356;28;20055;-46
2021/03/03 08:21:18;;;;;;;39.45;23.50;;;;;;;5.63;82.94;102039.25;4957457;28;20047;-48
2021/03/03 08:23:55;;;;;;;40.55;23.30;;;;;;;5.24;85.82;102035.78;4965120;28;20141;-50
2021/03/03 08:26:22;;;;;;;40.88;24.13;;;;;;;5.94;83.33;102034.59;4956191;28;20058;-52
2021/03/03 08:28:53;;;;;;;39.83;23.67;;;;;;;5.39;84.60;102032.50;4954915;28;20501;-46
2021/03/03 08:31:22;;;;;;;40.17;22.95;;;;;;;6.43;80.52;102036.91;4969624;28;20520;-45
2021/03/03 08:33:49;;;;;;;39.38;23.45;;;;;;;7.38;76.54;102039.44;4956438;28;20047;-46
2021/03/03 08:36:17;;;;;;;39.60;23.70;;;;;;;7.75;74.62;102033.97;4952092;28;21016;-50
2021/03/03 08:38:45;;;;;;;41.55;23.88;;;;;;;7.23;76.62;102033.44;4954426;28;20055;-49
2021/03/03 08:41:18;;;;;;;37.55;22.38;;;;;;;7.44;75.71;102031.31;4956785;28;20062;-49
2021/03/03 08:43:46;;;;;;;38.35;24.00;;;;;;;6.97;77.98;102026.72;4954759;28;20059;-48
2021/03/03 08:46:19;;;;;;;40.33;24.88;;;;;;;6.07;80.90;102018.47;4956694;28;20062;-46
2021/03/03 08:49:05;;;;;;;40.65;24.65;;;;;;;6.26;81.20;102015.47;4955052;28;20055;-47
2021/03/03 08:51:36;;;;;;;41.05;24.65;;;;;;;6.17;81.35;102022.50;4952898;28;20463;-49
2021/03/03 08:54:05;;;;;;;44.90;26.75;;;;;;;5.31;86.03;102011.66;4956179;28;20047;-44
2021/03/03 08:56:36;;;;;;;44.97;26.90;;;;;;;5.75;83.96;102011.25;4953270;28;20051;-50
2021/03/03 08:59:07;;;;;;;46.85;26.48;;;;;;;5.78;84.27;102011.47;4956024;28;20054;-46
2021/03/03 09:02:07;;;;;;;47.75;26.50;;;;;;;5.25;87.53;102007.06;4953532;28;20047;-50
2021/03/03 09:04:46;;;;;;;46.08;26.42;;;;;;;6.03;85.51;102016.50;4953153;28;20039;-49
2021/03/03 09:07:23;;;;;;;50.13;27.45;;;;;;;5.94;84.99;102021.00;4956304;28;20047;-50
2021/03/03 09:10:03;;;;;;;47.78;27.23;;;;;;;6.12;84.17;102020.53;4960000;28;20057;-49
2021/03/03 09:12:33;;;;;;;45.38;27.60;;;;;;;5.50;87.14;102009.63;4953366;28;20564;-46
2021/03/03 09:15:01;;;;;;;48.15;26.95;;;;;;;5.94;85.90;102009.16;4955913;28;20058;-49
2021/03/03 09:17:31;;;;;;;46.60;26.05;;;;;;;5.77;86.60;102010.53;4953205;28;20461;-51
2021/03/03 09:20:00;;;;;;;47.58;27.27;;;;;;;5.40;88.78;102001.25;4954306;28;20122;-46
2021/03/03 09:22:36;;;;;;;47.70;28.05;;;;;;;5.94;87.39;102003.19;4953309;28;20083;-49
2021/03/03 09:25:12;;;;;;;48.63;27.35;;;;;;;6.16;85.57;102011.44;4955871;28;20157;-48
2021/03/03 09:27:46;;;;;;;48.90;27.85;;;;;;;6.25;85.70;102006.06;4953573;28;20058;-50
2021/03/03 09:30:13;;;;;;;44.92;27.60;;;;;;;5.79;87.81;102003.91;4955533;28;20058;-55
2021/03/03 09:32:40;;;;;;;46.25;27.42;;;;;;;6.72;84.15;102011.63;4953001;28;20047;-50
2021/03/03 09:35:08;;;;;;;51.50;28.65;;;;;;;7.73;80.80;102009.19;4953337;28;20051;-50
2021/03/03 09:37:46;;;;;;;43.40;25.77;;;;;;;7.89;77.63;102001.63;4953006;28;20058;-55
2021/03/03 09:40:17;;;;;;;48.50;28.63;;;;;;;7.68;79.13;101998.72;4955314;28;20055;-47
2021/03/03 09:42:46;;;;;;;46.20;28.35;;;;;;;7.89;79.72;101999.06;4953989;28;20051;-52
2021/03/03 09:45:18;;;;;;;49.08;29.70;;;;;;;7.64;79.97;101990.03;4953140;28;20070;-52
2021/03/03 09:47:45;;;;;;;44.80;27.00;;;;;;;7.60;80.53;101989.75;4954256;28;20051;-52
2021/03/03 09:50:17;;;;;;;51.28;28.67;;;;;;;7.97;79.73;101987.66;4952740;28;20137;-48
2021/03/03 09:52:46;;;;;;;50.00;28.65;;;;;;;8.27;78.63;101985.06;4957221;28;20416;-51
2021/03/03 09:55:15;;;;;;;46.05;28.45;;;;;;;8.29;78.47;101980.94;4958882;28;20055;-51
2021/03/03 09:57:43;;;;;;;47.95;29.10;;;;;;;8.66;77.06;101987.28;4963018;28;20055;-50
2021/03/03 10:00:12;;;;;;;48.20;29.58;;;;;;;9.76;72.23;101984.47;4959108;28;20058;-49
2021/03/03 10:02:45;;;;;;;45.25;28.77;;;;;;;10.14;70.58;101998.28;5011672;23;20025;-51
2021/03/03 10:05:24;;;;;;;46.88;29.05;;;;;;;10.00;72.13;101995.03;4981187;28;20046;-57
2021/03/03 10:08:08;;;;;;;52.28;30.50;;;;;;;10.22;70.13;101991.84;4980186;28;20414;-53
2021/03/03 10:10:45;;;;;;;48.67;28.20;;;;;;;12.19;63.56;101994.59;4981355;28;20042;-58
2021/03/03 10:13:20;;;;;;;43.72;27.30;;;;;;;14.05;56.02;101990.22;4989169;28;20219;-54
2021/03/03 10:15:47;;;;;;;39.53;25.70;;;;;;;15.07;52.23;101994.16;5002538;28;20060;-56
2021/03/03 10:18:14;;;;;;;42.28;26.38;;;;;;;16.14;48.75;101994.41;4997788;28;20453;-57
2021/03/03 10:20:49;;;;;;;39.95;26.90;;;;;;;15.67;48.36;101989.84;4998809;28;20050;-57
2021/03/03 10:23:21;;;;;;;37.13;25.67;;;;;;;18.77;42.75;101995.03;5003581;28;20045;-52
2021/03/03 10:25:50;;;;;;;40.60;26.98;;;;;;;18.68;41.01;101992.28;4999560;28;20043;-59
2021/03/03 10:28:20;;;;;;;40.55;26.75;;;;;;;18.72;41.57;101991.50;4997569;28;20088;-57
2021/03/03 10:30:48;;;;;;;37.67;27.42;;;;;;;19.21;40.74;101979.09;4999008;28;20065;-55
2021/03/03 10:33:26;;;;;;;39.83;26.35;;;;;;;20.24;38.72;101978.25;4996949;28;20054;-56
2021/03/03 10:35:54;;;;;;;38.45;27.08;;;;;;;20.18;38.69;101974.75;5000010;28;20050;-57
2021/03/03 10:38:22;;;;;;;38.50;28.13;;;;;;;21.03;37.19;101972.63;5002118;28;20053;-54
2021/03/03 10:40:51;;;;;;;40.40;28.45;;;;;;;19.80;38.22;101967.56;5005861;28;20057;-53
2021/03/03 10:43:20;;;;;;;35.75;28.23;;;;;;;21.96;35.27;101973.63;5002498;28;20057;-55
2021/03/03 10:45:48;;;;;;;37.75;28.73;;;;;;;22.91;32.19;101984.72;4999523;28;20050;-58
2021/03/03 10:48:31;;;;;;;38.85;29.25;;;;;;;22.43;33.75;101980.53;5000507;28;20051;-52
2021/03/03 10:51:01;;;;;;;37.88;28.70;;;;;;;22.92;32.77;101977.75;5002505;28;20049;-55
2021/03/03 10:53:50;;;;;;;40.05;30.80;;;;;;;20.58;35.90;101958.56;4998302;28;20050;-59
2021/03/03 10:56:41;;;;;;;38.90;29.20;;;;;;;24.39;30.47;101964.41;5003526;28;20046;-56
2021/03/03 10:59:23;;;;;;;39.20;30.13;;;;;;;25.00;29.00;101970.63;4999945;28;20046;-56
2021/03/03 11:01:55;;;;;;;39.08;30.75;;;;;;;24.11;30.34;101955.94;5002251;28;20422;-53
2021/03/03 11:04:35;;;;;;;40.67;30.25;;;;;;;25.10;28.62;101967.91;5003588;28;20073;-57
2021/03/03 11:07:02;;;;;;;39.17;31.05;;;;;;;24.40;29.91;101960.91;4996993;28;20426;-57
2021/03/03 11:09:29;;;;;;;41.05;30.73;;;;;;;25.22;28.14;101953.72;4995960;28;20050;-61
2021/03/03 11:11:57;;;;;;;41.25;30.80;;;;;;;25.59;28.04;101956.63;4997532;28;20057;-58
2021/03/03 11:14:25;;;;;;;40.70;32.50;;;;;;;23.76;30.67;101938.00;4996362;28;20042;-57
2021/03/03 11:16:54;;;;;;;41.90;30.85;;;;;;;25.14;28.27;101938.13;5002794;28;20425;-57
2021/03/03 11:19:22;;;;;;;39.35;31.63;;;;;;;25.16;28.68;101929.38;4992739;28;20492;-57